sensor_id;sensor_type;location;lat;lon;timestamp;P1;durP1;ratioP1;P2;durP2;ratioP2
8536;SDS011;4306;50.210;10.628;2023-04-06T00:00:59;17.87;;;6.30;;
8536;SDS011;4306;50.210;10.628;2023-04-06T00:03:26;15.73;;;6.30;;
8536;SDS011;4306;50.210;10.628;2023-04-06T00:05:53;20.03;;;6.20;;
8536;SDS011;4306;50.210;10.628;2023-04-06T00:08:22;12.00;;;4.70;;
8536;SDS011;4306;50.210;10.628;2023-04-06T00:10:49;12.67;;;5.13;;
8536;SDS011;4306;50.210;10.628;2023-04-06T00:13:16;13.73;;;5.53;;
8536;SDS011;4306;50.210;10.628;2023-04-06T00:15:43;31.40;;;12.73;;
8536;SDS011;4306;50.210;10.628;2023-04-06T00:18:10;39.17;;;15.67;;
8536;SDS011;4306;50.210;10.628;2023-04-06T00:20:37;32.83;;;13.33;;
8536;SDS011;4306;50.210;10.628;2023-04-06T00:23:04;29.53;;;12.63;;
8536;SDS011;4306;50.210;10.628;2023-04-06T00:25:32;17.43;;;7.93;;
8536;SDS011;4306;50.210;10.628;2023-04-06T00:27:59;18.07;;;6.13;;
8536;SDS011;4306;50.210;10.628;2023-04-06T00:30:26;19.33;;;8.23;;
8536;SDS011;4306;50.210;10.628;2023-04-06T00:32:53;21.27;;;9.10;;
8536;SDS011;4306;50.210;10.628;2023-04-06T00:35:20;15.67;;;7.17;;
8536;SDS011;4306;50.210;10.628;2023-04-06T00:37:47;15.10;;;7.10;;
8536;SDS011;4306;50.210;10.628;2023-04-06T00:40:14;26.27;;;10.93;;
8536;SDS011;4306;50.210;10.628;2023-04-06T00:42:43;12.80;;;6.40;;
8536;SDS011;4306;50.210;10.628;2023-04-06T00:45:10;15.00;;;5.60;;
8536;SDS011;4306;50.210;10.628;2023-04-06T00:47:37;12.13;;;5.10;;
8536;SDS011;4306;50.210;10.628;2023-04-06T00:50:04;13.17;;;5.03;;
8536;SDS011;4306;50.210;10.628;2023-04-06T00:52:33;10.07;;;4.90;;
8536;SDS011;4306;50.210;10.628;2023-04-06T00:55:00;8.87;;;3.87;;
8536;SDS011;4306;50.210;10.628;2023-04-06T00:57:26;9.90;;;4.57;;
8536;SDS011;4306;50.210;10.628;2023-04-06T00:59:55;8.10;;;3.93;;
8536;SDS011;4306;50.210;10.628;2023-04-06T01:02:23;8.57;;;4.17;;
8536;SDS011;4306;50.210;10.628;2023-04-06T01:04:50;7.37;;;4.07;;
8536;SDS011;4306;50.210;10.628;2023-04-06T01:07:18;6.40;;;3.70;;
8536;SDS011;4306;50.210;10.628;2023-04-06T01:09:44;4.97;;;3.03;;
8536;SDS011;4306;50.210;10.628;2023-04-06T01:12:12;5.53;;;3.73;;
8536;SDS011;4306;50.210;10.628;2023-04-06T01:14:38;7.93;;;3.33;;
8536;SDS011;4306;50.210;10.628;2023-04-06T01:17:07;6.17;;;3.20;;
8536;SDS011;4306;50.210;10.628;2023-04-06T01:19:34;5.93;;;3.43;;
8536;SDS011;4306;50.210;10.628;2023-04-06T01:22:01;6.17;;;3.17;;
8536;SDS011;4306;50.210;10.628;2023-04-06T01:24:30;7.13;;;3.20;;
8536;SDS011;4306;50.210;10.628;2023-04-06T01:26:57;5.43;;;2.87;;
8536;SDS011;4306;50.210;10.628;2023-04-06T01:29:24;7.27;;;3.80;;
8536;SDS011;4306;50.210;10.628;2023-04-06T01:31:51;6.07;;;3.30;;
8536;SDS011;4306;50.210;10.628;2023-04-06T01:34:18;6.23;;;3.20;;
8536;SDS011;4306;50.210;10.628;2023-04-06T01:36:45;6.10;;;3.70;;
8536;SDS011;4306;50.210;10.628;2023-04-06T01:39:12;6.23;;;3.30;;
8536;SDS011;4306;50.210;10.628;2023-04-06T01:41:40;6.33;;;3.80;;
8536;SDS011;4306;50.210;10.628;2023-04-06T01:44:07;7.20;;;3.60;;
8536;SDS011;4306;50.210;10.628;2023-04-06T01:46:34;8.23;;;3.90;;
8536;SDS011;4306;50.210;10.628;2023-04-06T01:49:01;7.17;;;3.70;;
8536;SDS011;4306;50.210;10.628;2023-04-06T01:51:28;7.60;;;4.80;;
8536;SDS011;4306;50.210;10.628;2023-04-06T01:53:55;7.97;;;3.63;;
8536;SDS011;4306;50.210;10.628;2023-04-06T01:56:22;7.30;;;4.03;;
8536;SDS011;4306;50.210;10.628;2023-04-06T01:58:50;8.73;;;4.37;;
8536;SDS011;4306;50.210;10.628;2023-04-06T02:01:17;9.77;;;3.90;;
8536;SDS011;4306;50.210;10.628;2023-04-06T02:03:44;6.33;;;3.70;;
8536;SDS011;4306;50.210;10.628;2023-04-06T02:06:11;6.53;;;4.10;;
8536;SDS011;4306;50.210;10.628;2023-04-06T02:08:38;6.83;;;3.70;;
8536;SDS011;4306;50.210;10.628;2023-04-06T02:11:05;6.87;;;4.10;;
8536;SDS011;4306;50.210;10.628;2023-04-06T02:13:32;7.10;;;4.37;;
8536;SDS011;4306;50.210;10.628;2023-04-06T02:16:00;5.07;;;3.37;;
8536;SDS011;4306;50.210;10.628;2023-04-06T02:18:27;5.57;;;3.40;;
8536;SDS011;4306;50.210;10.628;2023-04-06T02:20:55;5.53;;;3.43;;
8536;SDS011;4306;50.210;10.628;2023-04-06T02:23:22;7.23;;;4.13;;
8536;SDS011;4306;50.210;10.628;2023-04-06T02:25:49;6.40;;;3.90;;
8536;SDS011;4306;50.210;10.628;2023-04-06T02:28:16;7.27;;;4.00;;
8536;SDS011;4306;50.210;10.628;2023-04-06T02:30:43;6.37;;;4.10;;
8536;SDS011;4306;50.210;10.628;2023-04-06T02:33:11;6.27;;;3.93;;
8536;SDS011;4306;50.210;10.628;2023-04-06T02:35:38;6.77;;;3.90;;
8536;SDS011;4306;50.210;10.628;2023-04-06T02:38:05;7.67;;;3.90;;
8536;SDS011;4306;50.210;10.628;2023-04-06T02:40:32;6.43;;;3.80;;
8536;SDS011;4306;50.210;10.628;2023-04-06T02:42:59;5.87;;;3.90;;
8536;SDS011;4306;50.210;10.628;2023-04-06T02:45:26;6.53;;;3.57;;
8536;SDS011;4306;50.210;10.628;2023-04-06T02:47:53;7.03;;;4.60;;
8536;SDS011;4306;50.210;10.628;2023-04-06T02:50:21;8.43;;;4.63;;
8536;SDS011;4306;50.210;10.628;2023-04-06T02:52:48;5.53;;;3.70;;
8536;SDS011;4306;50.210;10.628;2023-04-06T02:55:15;6.20;;;3.37;;
8536;SDS011;4306;50.210;10.628;2023-04-06T02:57:42;6.30;;;3.57;;
8536;SDS011;4306;50.210;10.628;2023-04-06T03:00:10;6.73;;;3.90;;
8536;SDS011;4306;50.210;10.628;2023-04-06T03:02:37;8.03;;;4.23;;
8536;SDS011;4306;50.210;10.628;2023-04-06T03:05:05;6.97;;;4.00;;
8536;SDS011;4306;50.210;10.628;2023-04-06T03:07:33;7.53;;;5.10;;
8536;SDS011;4306;50.210;10.628;2023-04-06T03:10:00;7.73;;;4.50;;
8536;SDS011;4306;50.210;10.628;2023-04-06T03:12:27;7.17;;;4.60;;
8536;SDS011;4306;50.210;10.628;2023-04-06T03:14:54;6.23;;;4.03;;
8536;SDS011;4306;50.210;10.628;2023-04-06T03:17:21;7.47;;;4.53;;
8536;SDS011;4306;50.210;10.628;2023-04-06T03:19:48;9.07;;;4.33;;
8536;SDS011;4306;50.210;10.628;2023-04-06T03:22:15;7.43;;;4.30;;
8536;SDS011;4306;50.210;10.628;2023-04-06T03:24:43;7.63;;;4.43;;
8536;SDS011;4306;50.210;10.628;2023-04-06T03:27:10;8.60;;;4.07;;
8536;SDS011;4306;50.210;10.628;2023-04-06T03:29:37;7.57;;;4.00;;
8536;SDS011;4306;50.210;10.628;2023-04-06T03:32:04;8.17;;;4.30;;
8536;SDS011;4306;50.210;10.628;2023-04-06T03:34:31;7.50;;;4.20;;
8536;SDS011;4306;50.210;10.628;2023-04-06T03:36:58;8.20;;;4.07;;
8536;SDS011;4306;50.210;10.628;2023-04-06T03:39:25;7.50;;;4.23;;
8536;SDS011;4306;50.210;10.628;2023-04-06T03:41:53;7.73;;;4.40;;
8536;SDS011;4306;50.210;10.628;2023-04-06T03:44:20;8.43;;;4.50;;
8536;SDS011;4306;50.210;10.628;2023-04-06T03:46:47;6.60;;;4.37;;
8536;SDS011;4306;50.210;10.628;2023-04-06T03:49:14;6.73;;;4.53;;
8536;SDS011;4306;50.210;10.628;2023-04-06T03:51:40;8.17;;;4.50;;
8536;SDS011;4306;50.210;10.628;2023-04-06T03:54:07;8.40;;;4.10;;
8536;SDS011;4306;50.210;10.628;2023-04-06T03:56:34;8.33;;;4.00;;
8536;SDS011;4306;50.210;10.628;2023-04-06T03:59:03;7.17;;;4.20;;
8536;SDS011;4306;50.210;10.628;2023-04-06T04:01:30;5.27;;;3.67;;
8536;SDS011;4306;50.210;10.628;2023-04-06T04:03:57;7.43;;;4.37;;
8536;SDS011;4306;50.210;10.628;2023-04-06T04:06:24;8.63;;;3.93;;
8536;SDS011;4306;50.210;10.628;2023-04-06T04:08:51;7.20;;;4.20;;
8536;SDS011;4306;50.210;10.628;2023-04-06T04:11:18;6.13;;;4.47;;
8536;SDS011;4306;50.210;10.628;2023-04-06T04:13:45;6.77;;;4.27;;
8536;SDS011;4306;50.210;10.628;2023-04-06T04:16:13;6.83;;;4.30;;
8536;SDS011;4306;50.210;10.628;2023-04-06T04:18:40;7.27;;;3.87;;
8536;SDS011;4306;50.210;10.628;2023-04-06T04:21:08;6.80;;;4.00;;
8536;SDS011;4306;50.210;10.628;2023-04-06T04:23:35;7.80;;;4.50;;
8536;SDS011;4306;50.210;10.628;2023-04-06T04:26:02;6.50;;;4.57;;
8536;SDS011;4306;50.210;10.628;2023-04-06T04:28:29;6.50;;;4.20;;
8536;SDS011;4306;50.210;10.628;2023-04-06T04:30:56;6.37;;;3.90;;
8536;SDS011;4306;50.210;10.628;2023-04-06T04:33:24;9.60;;;4.73;;
8536;SDS011;4306;50.210;10.628;2023-04-06T04:35:51;8.27;;;4.90;;
8536;SDS011;4306;50.210;10.628;2023-04-06T04:38:18;5.73;;;4.30;;
8536;SDS011;4306;50.210;10.628;2023-04-06T04:40:45;7.27;;;4.70;;
8536;SDS011;4306;50.210;10.628;2023-04-06T04:43:12;9.17;;;4.00;;
8536;SDS011;4306;50.210;10.628;2023-04-06T04:45:39;7.40;;;4.57;;
8536;SDS011;4306;50.210;10.628;2023-04-06T04:48:06;7.50;;;4.30;;
8536;SDS011;4306;50.210;10.628;2023-04-06T04:50:35;8.23;;;4.33;;
8536;SDS011;4306;50.210;10.628;2023-04-06T04:53:02;9.43;;;3.90;;
8536;SDS011;4306;50.210;10.628;2023-04-06T04:55:30;7.30;;;3.90;;
8536;SDS011;4306;50.210;10.628;2023-04-06T04:57:57;6.30;;;4.07;;
8536;SDS011;4306;50.210;10.628;2023-04-06T05:00:24;6.30;;;4.40;;
8536;SDS011;4306;50.210;10.628;2023-04-06T05:02:51;9.47;;;4.40;;
8536;SDS011;4306;50.210;10.628;2023-04-06T05:05:18;6.60;;;4.43;;
8536;SDS011;4306;50.210;10.628;2023-04-06T05:07:47;6.57;;;4.20;;
8536;SDS011;4306;50.210;10.628;2023-04-06T05:10:14;5.57;;;4.17;;
8536;SDS011;4306;50.210;10.628;2023-04-06T05:12:41;6.70;;;4.37;;
8536;SDS011;4306;50.210;10.628;2023-04-06T05:15:08;6.40;;;4.47;;
8536;SDS011;4306;50.210;10.628;2023-04-06T05:17:35;6.87;;;4.17;;
8536;SDS011;4306;50.210;10.628;2023-04-06T05:20:03;7.97;;;4.23;;
8536;SDS011;4306;50.210;10.628;2023-04-06T05:22:30;8.07;;;4.77;;
8536;SDS011;4306;50.210;10.628;2023-04-06T05:24:59;7.93;;;4.43;;
8536;SDS011;4306;50.210;10.628;2023-04-06T05:27:27;8.67;;;4.47;;
8536;SDS011;4306;50.210;10.628;2023-04-06T05:29:54;7.17;;;4.90;;
8536;SDS011;4306;50.210;10.628;2023-04-06T05:32:21;9.43;;;5.30;;
8536;SDS011;4306;50.210;10.628;2023-04-06T05:34:49;6.43;;;4.27;;
8536;SDS011;4306;50.210;10.628;2023-04-06T05:37:16;11.53;;;5.60;;
8536;SDS011;4306;50.210;10.628;2023-04-06T05:39:43;12.10;;;6.93;;
8536;SDS011;4306;50.210;10.628;2023-04-06T05:42:12;10.50;;;6.30;;
8536;SDS011;4306;50.210;10.628;2023-04-06T05:44:39;6.30;;;4.13;;
8536;SDS011;4306;50.210;10.628;2023-04-06T05:47:06;7.37;;;4.07;;
8536;SDS011;4306;50.210;10.628;2023-04-06T05:49:32;8.60;;;4.57;;
8536;SDS011;4306;50.210;10.628;2023-04-06T05:51:59;7.57;;;4.37;;
8536;SDS011;4306;50.210;10.628;2023-04-06T05:54:26;8.47;;;4.03;;
8536;SDS011;4306;50.210;10.628;2023-04-06T05:56:53;7.73;;;4.03;;
8536;SDS011;4306;50.210;10.628;2023-04-06T05:59:22;7.20;;;4.17;;
8536;SDS011;4306;50.210;10.628;2023-04-06T06:01:49;7.83;;;4.80;;
8536;SDS011;4306;50.210;10.628;2023-04-06T06:04:16;7.80;;;4.97;;
8536;SDS011;4306;50.210;10.628;2023-04-06T06:06:43;7.87;;;4.50;;
8536;SDS011;4306;50.210;10.628;2023-04-06T06:09:10;7.27;;;4.43;;
8536;SDS011;4306;50.210;10.628;2023-04-06T06:11:37;7.33;;;4.70;;
8536;SDS011;4306;50.210;10.628;2023-04-06T06:14:04;7.97;;;4.90;;
8536;SDS011;4306;50.210;10.628;2023-04-06T06:16:32;7.00;;;4.73;;
8536;SDS011;4306;50.210;10.628;2023-04-06T06:19:00;9.13;;;5.43;;
8536;SDS011;4306;50.210;10.628;2023-04-06T06:21:27;10.40;;;6.00;;
8536;SDS011;4306;50.210;10.628;2023-04-06T06:23:54;11.33;;;6.60;;
8536;SDS011;4306;50.210;10.628;2023-04-06T06:26:21;11.03;;;6.17;;
8536;SDS011;4306;50.210;10.628;2023-04-06T06:28:48;14.87;;;8.03;;
8536;SDS011;4306;50.210;10.628;2023-04-06T06:31:14;14.17;;;8.20;;
8536;SDS011;4306;50.210;10.628;2023-04-06T06:33:44;14.60;;;8.93;;
8536;SDS011;4306;50.210;10.628;2023-04-06T06:36:15;12.33;;;7.17;;
8536;SDS011;4306;50.210;10.628;2023-04-06T06:38:42;11.30;;;7.00;;
8536;SDS011;4306;50.210;10.628;2023-04-06T06:41:09;13.80;;;6.63;;
8536;SDS011;4306;50.210;10.628;2023-04-06T06:43:36;10.90;;;6.37;;
8536;SDS011;4306;50.210;10.628;2023-04-06T06:46:03;9.00;;;6.07;;
8536;SDS011;4306;50.210;10.628;2023-04-06T06:48:31;12.27;;;5.63;;
8536;SDS011;4306;50.210;10.628;2023-04-06T06:50:59;7.57;;;4.87;;
8536;SDS011;4306;50.210;10.628;2023-04-06T06:53:26;8.33;;;5.30;;
8536;SDS011;4306;50.210;10.628;2023-04-06T06:55:53;10.60;;;5.03;;
8536;SDS011;4306;50.210;10.628;2023-04-06T06:58:21;15.50;;;5.07;;
8536;SDS011;4306;50.210;10.628;2023-04-06T07:00:48;9.90;;;5.10;;
8536;SDS011;4306;50.210;10.628;2023-04-06T07:03:14;7.33;;;4.67;;
8536;SDS011;4306;50.210;10.628;2023-04-06T07:05:44;8.27;;;5.07;;
8536;SDS011;4306;50.210;10.628;2023-04-06T07:08:16;9.57;;;4.83;;
8536;SDS011;4306;50.210;10.628;2023-04-06T07:10:43;8.30;;;5.30;;
8536;SDS011;4306;50.210;10.628;2023-04-06T07:13:10;8.10;;;5.00;;
8536;SDS011;4306;50.210;10.628;2023-04-06T07:15:37;8.10;;;5.20;;
8536;SDS011;4306;50.210;10.628;2023-04-06T07:18:04;7.23;;;4.90;;
8536;SDS011;4306;50.210;10.628;2023-04-06T07:20:31;9.52;;;5.75;;
8536;SDS011;4306;50.210;10.628;2023-04-06T07:22:58;7.43;;;4.67;;
8536;SDS011;4306;50.210;10.628;2023-04-06T07:25:26;6.97;;;4.67;;
8536;SDS011;4306;50.210;10.628;2023-04-06T07:27:53;7.23;;;4.97;;
8536;SDS011;4306;50.210;10.628;2023-04-06T07:30:20;6.88;;;4.40;;
8536;SDS011;4306;50.210;10.628;2023-04-06T07:32:50;9.73;;;4.32;;
8536;SDS011;4306;50.210;10.628;2023-04-06T07:35:17;10.40;;;4.57;;
8536;SDS011;4306;50.210;10.628;2023-04-06T07:37:44;7.03;;;4.50;;
8536;SDS011;4306;50.210;10.628;2023-04-06T07:40:11;8.93;;;5.40;;
8536;SDS011;4306;50.210;10.628;2023-04-06T07:42:39;8.40;;;5.32;;
8536;SDS011;4306;50.210;10.628;2023-04-06T07:45:06;10.05;;;4.90;;
8536;SDS011;4306;50.210;10.628;2023-04-06T07:47:34;7.25;;;4.22;;
8536;SDS011;4306;50.210;10.628;2023-04-06T07:50:01;8.45;;;5.05;;
8536;SDS011;4306;50.210;10.628;2023-04-06T07:52:28;8.00;;;4.55;;
8536;SDS011;4306;50.210;10.628;2023-04-06T07:54:56;10.35;;;7.00;;
8536;SDS011;4306;50.210;10.628;2023-04-06T07:57:24;8.35;;;4.95;;
8536;SDS011;4306;50.210;10.628;2023-04-06T07:59:52;7.60;;;4.60;;
8536;SDS011;4306;50.210;10.628;2023-04-06T08:02:19;7.10;;;4.35;;
8536;SDS011;4306;50.210;10.628;2023-04-06T08:04:46;7.22;;;4.85;;
8536;SDS011;4306;50.210;10.628;2023-04-06T08:07:13;7.32;;;4.63;;
8536;SDS011;4306;50.210;10.628;2023-04-06T08:09:40;9.65;;;5.30;;
8536;SDS011;4306;50.210;10.628;2023-04-06T08:12:07;8.37;;;5.27;;
8536;SDS011;4306;50.210;10.628;2023-04-06T08:14:34;8.07;;;5.35;;
8536;SDS011;4306;50.210;10.628;2023-04-06T08:17:02;6.43;;;4.68;;
8536;SDS011;4306;50.210;10.628;2023-04-06T08:19:29;6.55;;;4.53;;
8536;SDS011;4306;50.210;10.628;2023-04-06T08:21:56;7.78;;;4.68;;
8536;SDS011;4306;50.210;10.628;2023-04-06T08:24:23;7.78;;;4.53;;
8536;SDS011;4306;50.210;10.628;2023-04-06T08:26:50;6.20;;;4.35;;
8536;SDS011;4306;50.210;10.628;2023-04-06T08:29:17;11.27;;;7.40;;
8536;SDS011;4306;50.210;10.628;2023-04-06T08:31:44;10.02;;;5.80;;
8536;SDS011;4306;50.210;10.628;2023-04-06T08:34:12;7.55;;;4.95;;
8536;SDS011;4306;50.210;10.628;2023-04-06T08:36:40;8.38;;;5.22;;
8536;SDS011;4306;50.210;10.628;2023-04-06T08:39:07;9.85;;;5.32;;
8536;SDS011;4306;50.210;10.628;2023-04-06T08:41:35;9.15;;;5.10;;
8536;SDS011;4306;50.210;10.628;2023-04-06T08:44:02;10.00;;;5.38;;
8536;SDS011;4306;50.210;10.628;2023-04-06T08:46:30;7.35;;;4.80;;
8536;SDS011;4306;50.210;10.628;2023-04-06T08:48:57;7.22;;;4.53;;
8536;SDS011;4306;50.210;10.628;2023-04-06T08:51:27;8.25;;;5.10;;
8536;SDS011;4306;50.210;10.628;2023-04-06T08:53:55;8.82;;;5.10;;
8536;SDS011;4306;50.210;10.628;2023-04-06T08:56:24;9.48;;;5.20;;
8536;SDS011;4306;50.210;10.628;2023-04-06T08:58:52;7.22;;;5.18;;
8536;SDS011;4306;50.210;10.628;2023-04-06T09:01:21;8.85;;;5.55;;
8536;SDS011;4306;50.210;10.628;2023-04-06T09:03:54;8.43;;;5.03;;
8536;SDS011;4306;50.210;10.628;2023-04-06T09:06:23;9.95;;;5.45;;
8536;SDS011;4306;50.210;10.628;2023-04-06T09:08:53;13.38;;;5.90;;
8536;SDS011;4306;50.210;10.628;2023-04-06T09:11:21;8.70;;;5.80;;
8536;SDS011;4306;50.210;10.628;2023-04-06T09:13:49;9.15;;;5.68;;
8536;SDS011;4306;50.210;10.628;2023-04-06T09:16:16;8.20;;;5.13;;
8536;SDS011;4306;50.210;10.628;2023-04-06T09:18:44;9.45;;;5.05;;
8536;SDS011;4306;50.210;10.628;2023-04-06T09:21:11;7.50;;;5.10;;
8536;SDS011;4306;50.210;10.628;2023-04-06T09:23:39;8.65;;;5.53;;
8536;SDS011;4306;50.210;10.628;2023-04-06T09:26:08;8.27;;;5.30;;
8536;SDS011;4306;50.210;10.628;2023-04-06T09:28:42;9.63;;;5.78;;
8536;SDS011;4306;50.210;10.628;2023-04-06T09:31:13;7.75;;;5.45;;
8536;SDS011;4306;50.210;10.628;2023-04-06T09:33:41;8.75;;;5.68;;
8536;SDS011;4306;50.210;10.628;2023-04-06T09:36:10;8.43;;;5.70;;
8536;SDS011;4306;50.210;10.628;2023-04-06T09:38:51;8.70;;;5.88;;
8536;SDS011;4306;50.210;10.628;2023-04-06T09:41:24;8.65;;;5.85;;
8536;SDS011;4306;50.210;10.628;2023-04-06T09:44:00;11.35;;;6.10;;
8536;SDS011;4306;50.210;10.628;2023-04-06T09:46:30;10.95;;;5.55;;
8536;SDS011;4306;50.210;10.628;2023-04-06T09:48:58;11.90;;;6.90;;
8536;SDS011;4306;50.210;10.628;2023-04-06T09:51:26;9.30;;;5.60;;
8536;SDS011;4306;50.210;10.628;2023-04-06T09:53:56;8.35;;;5.45;;
8536;SDS011;4306;50.210;10.628;2023-04-06T09:56:28;11.55;;;5.97;;
8536;SDS011;4306;50.210;10.628;2023-04-06T09:59:01;9.80;;;6.05;;
8536;SDS011;4306;50.210;10.628;2023-04-06T10:01:32;9.57;;;6.43;;
8536;SDS011;4306;50.210;10.628;2023-04-06T10:04:04;10.15;;;6.57;;
8536;SDS011;4306;50.210;10.628;2023-04-06T10:06:45;8.43;;;5.63;;
8536;SDS011;4306;50.210;10.628;2023-04-06T10:09:17;9.88;;;6.25;;
8536;SDS011;4306;50.210;10.628;2023-04-06T10:11:49;10.15;;;6.07;;
8536;SDS011;4306;50.210;10.628;2023-04-06T10:14:16;8.57;;;5.57;;
8536;SDS011;4306;50.210;10.628;2023-04-06T10:16:43;9.57;;;6.13;;
8536;SDS011;4306;50.210;10.628;2023-04-06T10:19:12;8.88;;;6.13;;
8536;SDS011;4306;50.210;10.628;2023-04-06T10:21:51;10.20;;;6.03;;
8536;SDS011;4306;50.210;10.628;2023-04-06T10:24:22;9.15;;;5.68;;
8536;SDS011;4306;50.210;10.628;2023-04-06T10:26:57;10.15;;;5.93;;
8536;SDS011;4306;50.210;10.628;2023-04-06T10:29:25;8.30;;;5.72;;
8536;SDS011;4306;50.210;10.628;2023-04-06T10:31:52;9.18;;;6.10;;
8536;SDS011;4306;50.210;10.628;2023-04-06T10:34:20;11.35;;;6.90;;
8536;SDS011;4306;50.210;10.628;2023-04-06T10:36:47;7.88;;;5.72;;
8536;SDS011;4306;50.210;10.628;2023-04-06T10:39:14;10.95;;;7.10;;
8536;SDS011;4306;50.210;10.628;2023-04-06T10:41:53;8.15;;;5.97;;
8536;SDS011;4306;50.210;10.628;2023-04-06T10:44:22;9.48;;;5.97;;
8536;SDS011;4306;50.210;10.628;2023-04-06T10:46:52;9.32;;;6.65;;
8536;SDS011;4306;50.210;10.628;2023-04-06T10:49:21;9.55;;;5.95;;
8536;SDS011;4306;50.210;10.628;2023-04-06T10:51:51;11.00;;;7.22;;
8536;SDS011;4306;50.210;10.628;2023-04-06T10:54:20;10.73;;;7.20;;
8536;SDS011;4306;50.210;10.628;2023-04-06T10:56:49;8.98;;;6.10;;
8536;SDS011;4306;50.210;10.628;2023-04-06T10:59:18;9.98;;;6.68;;
8536;SDS011;4306;50.210;10.628;2023-04-06T11:01:47;9.50;;;6.65;;
8536;SDS011;4306;50.210;10.628;2023-04-06T11:04:15;9.90;;;6.50;;
8536;SDS011;4306;50.210;10.628;2023-04-06T11:06:45;11.55;;;7.47;;
8536;SDS011;4306;50.210;10.628;2023-04-06T11:09:25;13.93;;;9.35;;
8536;SDS011;4306;50.210;10.628;2023-04-06T11:11:53;11.38;;;7.47;;
8536;SDS011;4306;50.210;10.628;2023-04-06T11:14:26;11.52;;;8.07;;
8536;SDS011;4306;50.210;10.628;2023-04-06T11:16:53;13.10;;;9.25;;
8536;SDS011;4306;50.210;10.628;2023-04-06T11:19:20;21.27;;;12.80;;
8536;SDS011;4306;50.210;10.628;2023-04-06T11:21:47;10.80;;;7.00;;
8536;SDS011;4306;50.210;10.628;2023-04-06T11:24:15;10.23;;;7.45;;
8536;SDS011;4306;50.210;10.628;2023-04-06T11:26:46;10.80;;;7.03;;
8536;SDS011;4306;50.210;10.628;2023-04-06T11:29:16;9.77;;;7.45;;
8536;SDS011;4306;50.210;10.628;2023-04-06T11:31:45;10.00;;;7.47;;
8536;SDS011;4306;50.210;10.628;2023-04-06T11:34:16;11.70;;;7.82;;
8536;SDS011;4306;50.210;10.628;2023-04-06T11:36:44;13.25;;;9.13;;
8536;SDS011;4306;50.210;10.628;2023-04-06T11:39:13;11.98;;;7.15;;
8536;SDS011;4306;50.210;10.628;2023-04-06T11:41:48;10.90;;;8.27;;
8536;SDS011;4306;50.210;10.628;2023-04-06T11:44:15;12.10;;;8.50;;
8536;SDS011;4306;50.210;10.628;2023-04-06T11:46:53;12.57;;;8.80;;
8536;SDS011;4306;50.210;10.628;2023-04-06T11:49:20;9.73;;;6.75;;
8536;SDS011;4306;50.210;10.628;2023-04-06T11:51:47;13.82;;;7.60;;
8536;SDS011;4306;50.210;10.628;2023-04-06T11:54:14;10.82;;;7.15;;
8536;SDS011;4306;50.210;10.628;2023-04-06T11:56:42;10.55;;;7.65;;
8536;SDS011;4306;50.210;10.628;2023-04-06T11:59:13;12.73;;;7.78;;
8536;SDS011;4306;50.210;10.628;2023-04-06T12:01:44;13.60;;;8.00;;
8536;SDS011;4306;50.210;10.628;2023-04-06T12:04:11;10.48;;;7.35;;
8536;SDS011;4306;50.210;10.628;2023-04-06T12:06:38;10.55;;;6.97;;
8536;SDS011;4306;50.210;10.628;2023-04-06T12:09:12;13.23;;;7.25;;
8536;SDS011;4306;50.210;10.628;2023-04-06T12:11:43;11.48;;;8.00;;
8536;SDS011;4306;50.210;10.628;2023-04-06T12:14:16;11.55;;;7.57;;
8536;SDS011;4306;50.210;10.628;2023-04-06T12:16:43;13.07;;;8.75;;
8536;SDS011;4306;50.210;10.628;2023-04-06T12:19:11;9.32;;;7.65;;
8536;SDS011;4306;50.210;10.628;2023-04-06T12:21:38;11.57;;;7.43;;
8536;SDS011;4306;50.210;10.628;2023-04-06T12:24:05;10.05;;;7.80;;
8536;SDS011;4306;50.210;10.628;2023-04-06T12:26:33;12.40;;;8.65;;
8536;SDS011;4306;50.210;10.628;2023-04-06T12:29:00;13.25;;;8.15;;
8536;SDS011;4306;50.210;10.628;2023-04-06T12:31:34;11.30;;;7.63;;
8536;SDS011;4306;50.210;10.628;2023-04-06T12:34:01;10.20;;;7.72;;
8536;SDS011;4306;50.210;10.628;2023-04-06T12:36:29;10.80;;;7.68;;
8536;SDS011;4306;50.210;10.628;2023-04-06T12:38:57;14.63;;;9.85;;
8536;SDS011;4306;50.210;10.628;2023-04-06T12:41:24;10.25;;;7.40;;
8536;SDS011;4306;50.210;10.628;2023-04-06T12:43:51;13.55;;;9.43;;
8536;SDS011;4306;50.210;10.628;2023-04-06T12:46:17;10.40;;;6.88;;
8536;SDS011;4306;50.210;10.628;2023-04-06T12:48:47;14.05;;;9.05;;
8536;SDS011;4306;50.210;10.628;2023-04-06T12:51:14;10.05;;;7.57;;
8536;SDS011;4306;50.210;10.628;2023-04-06T12:53:42;10.45;;;7.22;;
8536;SDS011;4306;50.210;10.628;2023-04-06T12:56:12;10.75;;;7.47;;
8536;SDS011;4306;50.210;10.628;2023-04-06T12:58:41;6.97;;;5.10;;
8536;SDS011;4306;50.210;10.628;2023-04-06T13:01:08;8.38;;;5.72;;
8536;SDS011;4306;50.210;10.628;2023-04-06T13:03:37;8.73;;;5.50;;
8536;SDS011;4306;50.210;10.628;2023-04-06T13:06:06;7.45;;;5.20;;
8536;SDS011;4306;50.210;10.628;2023-04-06T13:08:34;9.90;;;6.35;;
8536;SDS011;4306;50.210;10.628;2023-04-06T13:11:02;9.48;;;5.75;;
8536;SDS011;4306;50.210;10.628;2023-04-06T13:13:29;10.38;;;6.43;;
8536;SDS011;4306;50.210;10.628;2023-04-06T13:15:59;7.75;;;5.57;;
8536;SDS011;4306;50.210;10.628;2023-04-06T13:18:27;10.07;;;6.65;;
8536;SDS011;4306;50.210;10.628;2023-04-06T13:20:54;8.63;;;6.22;;
8536;SDS011;4306;50.210;10.628;2023-04-06T13:23:23;12.20;;;7.15;;
8536;SDS011;4306;50.210;10.628;2023-04-06T13:25:56;8.45;;;6.00;;
8536;SDS011;4306;50.210;10.628;2023-04-06T13:28:24;10.88;;;7.15;;
8536;SDS011;4306;50.210;10.628;2023-04-06T13:30:52;9.63;;;6.38;;
8536;SDS011;4306;50.210;10.628;2023-04-06T13:33:19;9.63;;;6.78;;
8536;SDS011;4306;50.210;10.628;2023-04-06T13:35:46;12.30;;;7.80;;
8536;SDS011;4306;50.210;10.628;2023-04-06T13:38:13;11.20;;;7.75;;
8536;SDS011;4306;50.210;10.628;2023-04-06T13:40:42;15.07;;;9.40;;
8536;SDS011;4306;50.210;10.628;2023-04-06T13:43:09;11.18;;;7.65;;
8536;SDS011;4306;50.210;10.628;2023-04-06T13:45:36;11.60;;;7.13;;
8536;SDS011;4306;50.210;10.628;2023-04-06T13:48:04;9.65;;;7.03;;
8536;SDS011;4306;50.210;10.628;2023-04-06T13:50:32;9.38;;;6.85;;
8536;SDS011;4306;50.210;10.628;2023-04-06T13:52:59;10.23;;;7.10;;
8536;SDS011;4306;50.210;10.628;2023-04-06T13:55:26;10.40;;;7.22;;
8536;SDS011;4306;50.210;10.628;2023-04-06T13:57:54;10.25;;;7.55;;
8536;SDS011;4306;50.210;10.628;2023-04-06T14:00:21;8.45;;;6.63;;
8536;SDS011;4306;50.210;10.628;2023-04-06T14:02:48;11.07;;;7.05;;
8536;SDS011;4306;50.210;10.628;2023-04-06T14:05:15;9.40;;;6.55;;
8536;SDS011;4306;50.210;10.628;2023-04-06T14:07:43;10.02;;;7.05;;
8536;SDS011;4306;50.210;10.628;2023-04-06T14:10:10;9.05;;;6.00;;
8536;SDS011;4306;50.210;10.628;2023-04-06T14:12:39;9.30;;;6.05;;
8536;SDS011;4306;50.210;10.628;2023-04-06T14:15:09;9.40;;;6.55;;
8536;SDS011;4306;50.210;10.628;2023-04-06T14:17:37;9.00;;;6.40;;
8536;SDS011;4306;50.210;10.628;2023-04-06T14:20:06;9.48;;;6.63;;
8536;SDS011;4306;50.210;10.628;2023-04-06T14:22:39;10.80;;;6.60;;
8536;SDS011;4306;50.210;10.628;2023-04-06T14:25:07;10.20;;;6.88;;
8536;SDS011;4306;50.210;10.628;2023-04-06T14:27:35;8.50;;;6.32;;
8536;SDS011;4306;50.210;10.628;2023-04-06T14:30:01;13.85;;;7.60;;
8536;SDS011;4306;50.210;10.628;2023-04-06T14:32:30;8.55;;;6.15;;
8536;SDS011;4306;50.210;10.628;2023-04-06T14:34:57;22.50;;;12.63;;
8536;SDS011;4306;50.210;10.628;2023-04-06T14:37:24;7.95;;;5.70;;
8536;SDS011;4306;50.210;10.628;2023-04-06T14:39:52;8.60;;;6.03;;
8536;SDS011;4306;50.210;10.628;2023-04-06T14:42:19;8.45;;;6.13;;
8536;SDS011;4306;50.210;10.628;2023-04-06T14:44:46;8.90;;;6.13;;
8536;SDS011;4306;50.210;10.628;2023-04-06T14:47:13;8.10;;;5.95;;
8536;SDS011;4306;50.210;10.628;2023-04-06T14:49:46;10.43;;;6.43;;
8536;SDS011;4306;50.210;10.628;2023-04-06T14:52:13;9.48;;;6.55;;
8536;SDS011;4306;50.210;10.628;2023-04-06T14:54:40;9.00;;;6.57;;
8536;SDS011;4306;50.210;10.628;2023-04-06T14:57:07;9.85;;;7.00;;
8536;SDS011;4306;50.210;10.628;2023-04-06T14:59:34;9.18;;;6.53;;
8536;SDS011;4306;50.210;10.628;2023-04-06T15:02:01;8.93;;;6.32;;